Masjed Soleyman, Iran
Current Conditions -  °F | °C
As of 10:00 AM on Monday 22 Dec 2014 (Local Time) from OIAW Reporting Station
Moderate Fog Moderate Fog  
Wind Chill: 52°   Ceiling: Unl
Heat Index: 52°   Visibility: 0.25mi
Dew Point: 50°   Wind: 5mph
Humidity: 94%   Direction: 270°W
Pressure: 30.03"   Gusts: NA
Location:  31.94°N, 49.31°E
Report Text: OIAW 220700Z 27004KT 0400 FG VV/// 11/10 Q1017
Loading
Personal Weather Stations






























Interactive Weather Map New forecast layout! Learn more

10-Day Weather Forecast

Advertisements
Track Severe Weather on mobile